Pagrindinis puslapis
METAR-TAF:

METAR-TAF

Oro uostai :

Mykolajivas, Ukraina

platuma: 47-03-29N, ilguma: 031-55-15E, Aukštis: 56 m

Dabartinis oras

Ataskaita buvo paskelbta 27 minutes, ne 07:00 UTC
Temperatūra 18°C
Drėgmė 52%
Slėgis 1008 hPa
Matomumas 10 km arba daugiau
nėra debesų žemiau 1500 m ir nėra kamuolinių lietaus debesų

METAR: UKON 140700Z /////MPS CAVOK 18/08 Q1008 R22/090075 NOSIG

Laikas: 10:27 (07:27 UTC)

Prognozė

Ataskaita buvo paskelbta 2 valandos ir 26 minutes, ne 05:01 UTC
Prognozė galioja nuo 14 metu 06 UTC su 14 metu 15 UTC
Vėjas 12 kt iš Pietų su gūsio iki 25 kt
Matomumas 10 km arba daugiau
Išsisklaidę debesys ne aukštis 2500 ft, Liūtiniai kamuoliniai debesys.
Tikimybė 40% :
Laikinai
nuo 14 metu 06 UTC su 14 metu 15 UTC
Vėjas 19 kt nuo kintamojo kryptimis su gūsio iki 37 kt
Matomumas: 0800 m
ne aukštis 300 ft
perkūnija, lietus, kruša, škvalai

TAF: UKON 140501Z 1406/1415 19006G13MPS 9999 SCT025CB PROB40 TEMPO 1406/1415 VRB10G19MPS 0800 +TSRAGR SQ VV003

Orai ataskaitas ir orų prognozės (METAR, TAF).

turimą stotys yra geltonos ir raudonos taškus žemėlapyje.

Perkelti pele per norėdami pamatyti stoties vardą.

Tada spustelėkite, norėdami matyti oro stebėjimo ir prognozės.

Norėdami pakeisti žemėlapį: spustelėkite ant žalios mygtukų su juodo kryžiaus žemyn,; žalią mygtuką su brūkšneliu, jei norite nutolinti; arba žalių rodyklių gretimoms žemėlapius.


METAR-TAF: